createdAt,value
2018-11-20T03:14:15.265Z,84.38
2018-11-20T03:15:15.243Z,85.23
2018-11-20T03:16:15.210Z,84.56
2018-11-20T03:17:15.221Z,84.38
2018-11-20T03:18:15.187Z,84.28
2018-11-20T03:19:15.177Z,84.66
2018-11-20T03:20:15.149Z,84.56
2018-11-20T03:21:15.138Z,84.19
2018-11-20T03:22:15.121Z,84.66
2018-11-20T03:23:15.127Z,84.75
2018-11-20T03:24:15.119Z,84.75
2018-11-20T03:25:15.085Z,84.56
2018-11-20T03:26:15.067Z,84.56
2018-11-20T03:27:15.061Z,84.38
2018-11-20T03:28:15.058Z,84.38
2018-11-20T03:29:15.058Z,84.56
2018-11-20T03:30:15.027Z,84.19
2018-11-20T03:31:15.041Z,84.47
2018-11-20T03:32:15.002Z,84.94
2018-11-20T03:33:14.978Z,85.13
2018-11-20T03:34:14.963Z,85.04
2018-11-20T03:35:14.977Z,85.04
2018-11-20T03:36:14.971Z,85.32
2018-11-20T03:37:14.935Z,85.04
2018-11-20T03:38:14.924Z,84.94
2018-11-20T03:39:14.910Z,85.13
2018-11-20T03:40:14.897Z,84.47
2018-11-20T03:41:14.915Z,84.38
2018-11-20T03:42:14.872Z,84.94
2018-11-20T03:43:14.856Z,84.38
2018-11-20T03:44:14.847Z,84.47
2018-11-20T03:45:14.839Z,85.13
2018-11-20T03:46:14.858Z,85.04
2018-11-20T03:47:14.811Z,84.38
2018-11-20T03:48:14.801Z,84.66
2018-11-20T03:49:14.787Z,85.04
2018-11-20T03:50:14.777Z,84.56
2018-11-20T03:51:14.792Z,84.38
2018-11-20T03:52:14.750Z,85.13
2018-11-20T03:53:14.735Z,84.85
2018-11-20T03:54:14.769Z,85.04
2018-11-20T03:55:14.707Z,84.51
2018-11-20T03:56:23.370Z,84.42
2018-11-20T03:58:08.111Z,85.04
2018-11-20T03:59:08.079Z,84.70
2018-11-20T04:00:08.077Z,84.85
2018-11-20T04:01:08.052Z,84.94
2018-11-20T04:02:08.030Z,84.38
2018-11-20T04:03:08.047Z,85.13
2018-11-20T04:04:08.016Z,84.85
2018-11-20T04:05:07.995Z,84.94
2018-11-20T04:06:07.990Z,85.04
2018-11-20T04:07:07.971Z,84.85
2018-11-20T04:08:07.961Z,84.75
2018-11-20T04:09:07.948Z,85.13
2018-11-20T04:10:07.939Z,85.23
2018-11-20T04:11:07.926Z,84.66
2018-11-20T04:12:07.917Z,85.04
2018-11-20T04:13:07.895Z,85.13
2018-11-20T04:14:07.887Z,84.47
2018-11-20T04:15:07.877Z,84.75
2018-11-20T04:16:07.892Z,84.85
2018-11-20T04:17:07.851Z,85.23
2018-11-20T04:18:07.848Z,84.56
2018-11-20T04:19:07.826Z,84.75
2018-11-20T04:20:07.818Z,84.70
2018-11-20T04:21:07.811Z,85.04
2018-11-20T04:22:07.800Z,84.99
2018-11-20T04:23:07.784Z,84.85
2018-11-20T04:24:07.768Z,84.75
2018-11-20T04:25:07.760Z,85.04
2018-11-20T04:26:07.752Z,85.32
2018-11-20T04:27:07.736Z,84.47
2018-11-20T04:28:07.737Z,84.38
2018-11-20T04:29:07.708Z,84.85
2018-11-20T04:30:07.696Z,84.42
2018-11-20T04:31:07.692Z,84.70
2018-11-20T04:32:07.701Z,85.17
2018-11-20T04:33:07.667Z,85.04
2018-11-20T04:34:07.656Z,85.13
2018-11-20T04:35:07.639Z,85.27
2018-11-20T04:36:07.635Z,85.13
2018-11-20T04:37:07.634Z,85.46
2018-11-20T04:38:07.611Z,85.17
2018-11-20T04:39:07.606Z,85.04
2018-11-20T04:40:07.578Z,84.47
2018-11-20T04:41:07.590Z,84.94
2018-11-20T04:42:07.561Z,85.04
2018-11-20T04:43:07.555Z,84.94
2018-11-20T04:44:07.550Z,85.32
2018-11-20T04:45:07.518Z,85.13
2018-11-20T04:46:07.503Z,84.94
2018-11-20T04:47:07.496Z,84.94
2018-11-20T04:48:07.482Z,85.23
2018-11-20T04:49:07.483Z,85.13
2018-11-20T04:50:07.457Z,84.75
2018-11-20T04:51:07.449Z,85.32
2018-11-20T04:52:07.431Z,85.13
2018-11-20T04:53:07.427Z,85.04
2018-11-20T04:54:07.424Z,85.32
2018-11-20T04:55:07.417Z,85.23
2018-11-20T04:56:07.383Z,84.75
2018-11-20T04:57:07.380Z,85.13
2018-11-20T04:58:07.367Z,85.04
2018-11-20T04:59:07.353Z,85.23
2018-11-20T05:00:07.343Z,85.13
2018-11-20T05:01:07.322Z,85.23
2018-11-20T05:02:07.340Z,84.94
2018-11-20T05:03:07.301Z,85.04
2018-11-20T05:04:07.302Z,84.94
2018-11-20T05:05:07.291Z,85.13
2018-11-20T05:06:07.273Z,85.23
2018-11-20T05:07:07.298Z,84.80
2018-11-20T05:08:07.243Z,85.08
2018-11-20T05:09:07.242Z,84.99
2018-11-20T05:10:07.240Z,85.36
2018-11-20T05:11:07.208Z,84.89
2018-11-20T05:12:07.194Z,85.32
2018-11-20T05:13:07.249Z,85.13
2018-11-20T05:14:07.189Z,84.85
2018-11-20T05:15:07.162Z,84.99
2018-11-20T05:16:07.149Z,85.36
2018-11-20T05:17:07.161Z,85.17
2018-11-20T05:18:07.122Z,84.80
2018-11-20T05:19:07.113Z,84.89
2018-11-20T05:20:07.111Z,84.70
2018-11-20T05:21:07.096Z,85.23
2018-11-20T05:22:07.071Z,85.08
2018-11-20T05:23:07.065Z,85.23
2018-11-20T05:24:07.052Z,85.13
2018-11-20T05:25:07.047Z,84.85
2018-11-20T05:26:07.028Z,84.80
2018-11-20T05:27:07.028Z,84.89
2018-11-20T05:28:07.077Z,85.17
2018-11-20T05:29:06.990Z,84.61
2018-11-20T05:30:06.988Z,84.80
2018-11-20T05:31:07.077Z,84.89
2018-11-20T05:32:06.990Z,85.36
2018-11-20T05:33:06.959Z,85.27
2018-11-20T05:34:06.938Z,84.89
2018-11-20T05:35:06.926Z,85.17
2018-11-20T05:36:06.916Z,85.08
2018-11-20T05:37:06.920Z,84.89
2018-11-20T05:38:06.896Z,85.27
2018-11-20T05:39:06.880Z,85.17
2018-11-20T05:40:06.897Z,85.08
2018-11-20T05:41:06.863Z,85.17
2018-11-20T05:42:06.842Z,85.08
2018-11-20T05:43:06.850Z,85.04
2018-11-20T05:44:06.825Z,84.89
2018-11-20T05:45:06.808Z,84.94
2018-11-20T05:46:06.835Z,84.89
2018-11-20T05:47:06.788Z,84.70
2018-11-20T05:48:06.765Z,84.89
2018-11-20T05:49:06.762Z,84.70
2018-11-20T05:50:06.803Z,85.08
2018-11-20T05:51:06.735Z,84.80
2018-11-20T05:52:06.717Z,85.17
2018-11-20T05:53:06.723Z,85.46
2018-11-20T05:54:06.697Z,85.36
2018-11-20T05:55:06.685Z,85.17
2018-11-20T05:56:06.666Z,85.17
2018-11-20T05:57:06.656Z,84.80
2018-11-20T05:58:06.675Z,85.08
2018-11-20T05:59:06.641Z,85.17
2018-11-20T06:00:06.621Z,85.36
2018-11-20T06:01:06.622Z,84.80
2018-11-20T06:02:06.598Z,84.99
2018-11-20T06:03:06.628Z,84.99
2018-11-20T06:04:06.577Z,85.17
2018-11-20T06:05:06.580Z,85.55
2018-11-20T06:06:06.629Z,85.55
2018-11-20T06:07:06.568Z,85.36
2018-11-20T06:08:06.542Z,85.42
2018-11-20T06:09:06.535Z,85.08
2018-11-20T06:10:06.520Z,85.55
2018-11-20T06:11:06.509Z,85.17
2018-11-20T06:12:06.496Z,85.13
2018-11-20T06:13:06.476Z,86.22
2018-11-20T06:14:06.475Z,86.03
2018-11-20T06:15:06.477Z,86.22
2018-11-20T06:16:06.431Z,86.22
2018-11-20T06:17:06.434Z,85.36
2018-11-20T06:18:06.414Z,84.99
2018-11-20T06:19:06.481Z,85.08
2018-11-20T06:20:06.394Z,85.17
2018-11-20T06:21:06.379Z,85.55
2018-11-20T06:22:06.372Z,85.27
2018-11-20T06:23:06.371Z,85.08
2018-11-20T06:24:06.340Z,84.99
2018-11-20T06:25:06.351Z,84.99
2018-11-20T06:26:06.320Z,85.74
2018-11-20T06:27:06.301Z,86.03
2018-11-20T06:28:06.318Z,86.03
2018-11-20T06:29:06.340Z,85.74
2018-11-20T06:30:06.277Z,85.93
2018-11-20T06:31:06.292Z,86.22
2018-11-20T06:32:06.247Z,86.22
2018-11-20T06:33:06.235Z,85.46
2018-11-20T06:34:06.226Z,85.55
2018-11-20T06:35:06.336Z,85.08
2018-11-20T06:36:06.202Z,85.46
2018-11-20T06:37:06.184Z,86.22
2018-11-20T06:38:06.177Z,85.93
2018-11-20T06:39:06.175Z,85.93
2018-11-20T06:40:06.147Z,85.93
2018-11-20T06:41:06.182Z,85.93
2018-11-20T06:42:06.128Z,85.65
2018-11-20T06:43:06.117Z,86.03
2018-11-20T06:44:06.114Z,86.03
2018-11-20T06:45:06.100Z,85.84
2018-11-20T06:46:06.080Z,85.93
2018-11-20T06:47:06.124Z,86.12
2018-11-20T06:48:06.048Z,85.74
2018-11-20T06:49:06.046Z,85.93
2018-11-20T06:50:06.037Z,86.22
2018-11-20T06:51:06.018Z,86.03
2018-11-20T06:52:06.058Z,86.12
2018-11-20T06:53:06.234Z,85.84
2018-11-20T06:54:06.010Z,86.31
2018-11-20T06:55:06.049Z,86.12
2018-11-20T06:56:06.043Z,86.31
2018-11-20T06:57:05.974Z,86.22
2018-11-20T06:58:05.987Z,86.41
2018-11-20T06:59:05.921Z,86.98
2018-11-20T07:00:05.924Z,86.98
2018-11-20T07:01:05.929Z,86.69
2018-11-20T07:02:14.569Z,86.31
2018-11-20T07:04:00.960Z,86.31
2018-11-20T07:05:00.281Z,86.41
2018-11-20T07:06:00.240Z,86.31
2018-11-20T07:07:00.296Z,86.88
2018-11-20T07:08:00.340Z,86.50
2018-11-20T07:09:00.207Z,86.41
2018-11-20T07:10:00.206Z,86.98
2018-11-20T07:11:00.184Z,86.41
2018-11-20T07:12:00.195Z,86.79
2018-11-20T07:13:00.196Z,86.79
2018-11-20T07:14:00.195Z,86.60
2018-11-20T07:15:00.219Z,86.60
2018-11-20T07:16:00.517Z,86.79
2018-11-20T07:17:00.116Z,87.16
2018-11-20T07:18:00.115Z,87.35
2018-11-20T07:19:00.097Z,87.26
2018-11-20T07:20:00.088Z,87.26
2018-11-20T07:21:00.068Z,86.98
2018-11-20T07:22:00.100Z,87.16
2018-11-20T07:23:00.039Z,87.45
2018-11-20T07:24:00.101Z,87.16
2018-11-20T07:25:00.048Z,87.35
2018-11-20T07:26:00.025Z,86.98
2018-11-20T07:27:00.011Z,86.98
2018-11-20T07:28:00.004Z,86.98
2018-11-20T07:28:59.991Z,87.26
2018-11-20T07:30:00.015Z,86.98
2018-11-20T07:31:00.063Z,87.35
2018-11-20T07:31:59.985Z,87.45
2018-11-20T07:32:59.917Z,87.16
2018-11-20T07:33:59.910Z,87.35
2018-11-20T07:34:59.978Z,87.73
2018-11-20T07:35:59.915Z,87.64
2018-11-20T07:36:59.948Z,87.45
2018-11-20T07:37:59.886Z,87.45
2018-11-20T07:38:59.851Z,87.54
2018-11-20T07:39:59.850Z,88.11
2018-11-20T07:40:59.832Z,87.54
2018-11-20T07:41:59.832Z,87.45
2018-11-20T07:42:59.806Z,87.45
2018-11-20T07:43:59.858Z,88.02
2018-11-20T07:44:59.782Z,88.02
2018-11-20T07:45:59.801Z,87.73
2018-11-20T07:46:59.782Z,87.73
2018-11-20T07:47:59.747Z,87.83
2018-11-20T07:48:59.779Z,88.49
2018-11-20T07:49:59.778Z,87.92
2018-11-20T07:50:59.740Z,88.11
2018-11-20T07:51:59.741Z,87.83
2018-11-20T07:52:59.764Z,88.11
2018-11-20T07:53:59.676Z,87.54
2018-11-20T07:54:59.668Z,88.21
2018-11-20T07:55:59.794Z,88.11
2018-11-20T07:56:59.696Z,88.40
2018-11-20T07:57:59.659Z,88.68
2018-11-20T07:58:59.652Z,87.83
2018-11-20T07:59:59.605Z,88.68
2018-11-20T08:00:59.622Z,88.21
2018-11-20T08:01:59.611Z,88.40
2018-11-20T08:02:59.582Z,88.21
2018-11-20T08:03:59.594Z,88.21
2018-11-20T08:04:59.552Z,88.40
2018-11-20T08:05:59.553Z,88.59
2018-11-20T08:06:59.556Z,88.11
2018-11-20T08:07:59.594Z,88.78
2018-11-20T08:08:59.505Z,88.78
2018-11-20T08:09:59.481Z,88.49
2018-11-20T08:10:59.469Z,88.87
2018-11-20T08:11:59.535Z,88.59
2018-11-20T08:12:59.459Z,88.68
2018-11-20T08:13:59.467Z,89.15
2018-11-20T08:14:59.440Z,88.30
2018-11-20T08:15:59.478Z,88.68
2018-11-20T08:16:59.419Z,88.40
2018-11-20T08:17:59.384Z,88.59
2018-11-20T08:18:59.389Z,88.68
2018-11-20T08:19:59.373Z,88.59
2018-11-20T08:20:59.351Z,88.59
2018-11-20T08:21:59.347Z,88.49
2018-11-20T08:22:59.352Z,88.68
2018-11-20T08:23:59.318Z,87.92
2018-11-20T08:24:59.330Z,88.68
2018-11-20T08:25:59.397Z,88.30
2018-11-20T08:26:59.329Z,88.30
2018-11-20T08:27:59.334Z,88.30
2018-11-20T08:28:59.290Z,88.59
2018-11-20T08:29:59.251Z,88.49
2018-11-20T08:30:59.324Z,88.49
2018-11-20T08:31:59.246Z,88.78
2018-11-20T08:32:59.223Z,88.30
2018-11-20T08:33:59.273Z,88.40
2018-11-20T08:34:59.239Z,88.21
2018-11-20T08:35:59.219Z,88.02
2018-11-20T08:36:59.161Z,88.02
2018-11-20T08:37:59.185Z,88.21
2018-11-20T08:38:59.144Z,88.11
2018-11-20T08:39:59.122Z,88.11
2018-11-20T08:40:59.117Z,88.30
2018-11-20T08:41:59.163Z,87.64
2018-11-20T08:42:59.099Z,88.02
2018-11-20T08:43:59.081Z,88.30
2018-11-20T08:44:59.082Z,88.21
2018-11-20T08:45:59.073Z,87.83
2018-11-20T08:46:59.067Z,88.30
2018-11-20T08:47:59.207Z,87.92
2018-11-20T08:48:59.029Z,88.02
2018-11-20T08:49:59.030Z,88.21
2018-11-20T08:50:59.015Z,88.21
2018-11-20T08:51:58.993Z,87.83
2018-11-20T08:52:59.018Z,88.02
2018-11-20T08:53:58.975Z,88.21
2018-11-20T08:54:59.019Z,87.92
2018-11-20T08:55:58.935Z,88.11
2018-11-20T08:56:59.035Z,88.02
2018-11-20T08:57:58.949Z,88.11
2018-11-20T08:58:58.983Z,88.11
2018-11-20T08:59:58.962Z,88.21
2018-11-20T09:00:58.888Z,88.30
2018-11-20T09:01:58.947Z,88.21
2018-11-20T09:02:58.943Z,88.30
2018-11-20T09:03:58.959Z,88.40
2018-11-20T09:04:58.838Z,88.30
2018-11-20T09:05:58.824Z,88.30
2018-11-20T09:06:58.813Z,88.11
2018-11-20T09:07:58.832Z,88.02
2018-11-20T09:08:58.813Z,88.02
2018-11-20T09:09:58.883Z,87.92
2018-11-20T09:10:58.776Z,87.92
2018-11-20T09:11:58.757Z,88.02
2018-11-20T09:12:58.763Z,88.11
2018-11-20T09:13:58.741Z,88.02
2018-11-20T09:14:58.726Z,88.30
2018-11-20T09:15:58.703Z,88.21
2018-11-20T09:16:58.718Z,88.11
2018-11-20T09:17:58.853Z,88.02
2018-11-20T09:18:58.697Z,87.73
2018-11-20T09:19:58.659Z,88.21
2018-11-20T09:20:58.691Z,87.92
2018-11-20T09:21:58.632Z,88.21
2018-11-20T09:22:58.625Z,87.83
2018-11-20T09:23:58.654Z,87.83
2018-11-20T09:24:58.632Z,88.02
2018-11-20T09:25:58.653Z,87.64
2018-11-20T09:26:58.606Z,88.21
2018-11-20T09:27:58.643Z,87.83
2018-11-20T09:28:58.556Z,88.21
2018-11-20T09:29:58.561Z,88.11
2018-11-20T09:30:58.539Z,87.54
2018-11-20T09:31:58.542Z,88.11
2018-11-20T09:32:58.534Z,87.73
2018-11-20T09:33:58.562Z,88.11
2018-11-20T09:34:58.608Z,88.02
2018-11-20T09:35:58.491Z,87.83
2018-11-20T09:36:58.514Z,88.21
2018-11-20T09:37:58.495Z,88.02
2018-11-20T09:38:58.450Z,87.73
2018-11-20T09:39:58.514Z,87.64
2018-11-20T09:40:58.409Z,88.02
2018-11-20T09:41:58.401Z,87.92
2018-11-20T09:42:58.388Z,88.40
2018-11-20T09:43:58.379Z,87.83
2018-11-20T09:44:58.407Z,87.45
2018-11-20T09:45:58.377Z,87.68
2018-11-20T09:46:58.408Z,88.16
2018-11-20T09:47:58.377Z,87.64
2018-11-20T09:48:58.372Z,87.59
2018-11-20T09:49:58.355Z,87.12
2018-11-20T09:50:58.343Z,86.98
2018-11-20T09:51:58.291Z,87.45
2018-11-20T09:52:58.442Z,87.35
2018-11-20T09:53:58.269Z,87.45
2018-11-20T09:54:58.316Z,87.97
2018-11-20T09:55:58.309Z,87.30
2018-11-20T09:56:58.236Z,86.93
2018-11-20T09:57:58.223Z,86.55
2018-11-20T09:58:58.250Z,87.30
2018-11-20T09:59:58.294Z,87.21
2018-11-20T10:00:58.243Z,87.49
2018-11-20T10:01:58.236Z,86.55
2018-11-20T10:02:58.185Z,86.64
2018-11-20T10:03:58.156Z,86.64
2018-11-20T10:04:58.145Z,87.12
2018-11-20T10:05:58.127Z,86.93
2018-11-20T10:06:58.214Z,86.55
2018-11-20T10:07:58.109Z,86.74
2018-11-20T10:08:58.122Z,86.55
2018-11-20T10:09:58.083Z,86.26
2018-11-20T10:10:58.080Z,86.55
2018-11-20T10:11:58.077Z,87.02
2018-11-20T10:12:58.053Z,87.12
2018-11-20T10:13:58.075Z,86.64
2018-11-20T10:14:58.074Z,86.55
2018-11-20T10:15:58.020Z,86.55
2018-11-20T10:16:58.012Z,86.55
2018-11-20T10:17:57.990Z,86.55
2018-11-20T10:18:57.984Z,86.45
2018-11-20T10:19:57.975Z,86.07
2018-11-20T10:20:57.970Z,86.55
2018-11-20T10:21:58.028Z,85.78
2018-11-20T10:22:58.011Z,86.74
2018-11-20T10:23:57.949Z,86.35
2018-11-20T10:24:58.006Z,86.26
2018-11-20T10:25:58.021Z,87.02
2018-11-20T10:26:57.905Z,85.88
2018-11-20T10:27:57.937Z,86.26
2018-11-20T10:28:57.891Z,85.69
2018-11-20T10:29:57.866Z,85.88
2018-11-20T10:30:57.860Z,86.45
2018-11-20T10:31:57.873Z,86.45
2018-11-20T10:32:57.872Z,86.55
2018-11-20T10:33:57.834Z,86.55
2018-11-20T10:34:57.835Z,85.97
2018-11-20T10:35:57.843Z,86.07
2018-11-20T10:36:57.783Z,86.55
2018-11-20T10:37:57.783Z,86.45
2018-11-20T10:38:57.780Z,86.26
2018-11-20T10:39:57.778Z,86.35
2018-11-20T10:40:57.768Z,86.74
2018-11-20T10:41:57.722Z,86.55
2018-11-20T10:42:57.788Z,86.45
2018-11-20T10:43:57.718Z,86.83
2018-11-20T10:44:57.757Z,86.74
2018-11-20T10:45:57.790Z,87.02
2018-11-20T10:46:57.682Z,86.45
2018-11-20T10:47:57.703Z,86.45
2018-11-20T10:48:57.653Z,85.97
2018-11-20T10:49:57.649Z,86.16
2018-11-20T10:50:57.655Z,86.55
2018-11-20T10:51:57.616Z,85.97
2018-11-20T10:52:57.621Z,86.26
2018-11-20T10:53:57.596Z,86.07
2018-11-20T10:54:57.620Z,85.97
2018-11-20T10:55:57.675Z,86.26
2018-11-20T10:56:57.686Z,85.97
2018-11-20T10:57:57.603Z,85.88
2018-11-20T10:58:57.598Z,86.59
2018-11-20T10:59:57.584Z,86.21
2018-11-20T11:00:57.528Z,85.69
2018-11-20T11:01:57.567Z,85.97
2018-11-20T11:02:57.504Z,86.26
2018-11-20T11:03:57.485Z,85.88
2018-11-20T11:04:57.561Z,85.97
2018-11-20T11:05:57.477Z,85.88
2018-11-20T11:06:57.699Z,86.26
2018-11-20T11:07:57.701Z,86.26
2018-11-20T11:08:57.476Z,86.16
2018-11-20T11:09:57.416Z,86.07
2018-11-20T11:10:57.458Z,85.78
2018-11-20T11:11:57.440Z,85.78
2018-11-20T11:12:57.389Z,85.97
2018-11-20T11:13:57.372Z,86.26
2018-11-20T11:14:57.367Z,86.16
2018-11-20T11:15:57.443Z,86.30
2018-11-20T11:16:57.345Z,86.11
2018-11-20T11:17:57.329Z,86.11
2018-11-20T11:18:57.318Z,85.83
2018-11-20T11:19:57.353Z,85.64
2018-11-20T11:20:57.388Z,85.17
2018-11-20T11:21:57.287Z,85.45
2018-11-20T11:23:00.276Z,85.26
2018-11-20T11:23:57.268Z,85.93
2018-11-20T11:24:57.279Z,85.36
2018-11-20T11:25:57.313Z,85.17
2018-11-20T11:26:57.242Z,84.98
2018-11-20T11:27:57.262Z,85.50
2018-11-20T11:28:57.248Z,85.07
2018-11-20T11:29:57.243Z,85.74
2018-11-20T11:30:57.208Z,85.64
2018-11-20T11:31:57.201Z,85.07
2018-11-20T11:32:57.188Z,85.45
2018-11-20T11:33:57.165Z,85.55
2018-11-20T11:34:57.172Z,85.36
2018-11-20T11:35:57.141Z,85.26
2018-11-20T11:36:57.136Z,85.36
2018-11-20T11:37:57.138Z,85.45
2018-11-20T11:38:57.112Z,85.45
2018-11-20T11:39:57.108Z,84.98
2018-11-20T11:40:57.095Z,84.98
2018-11-20T11:41:57.137Z,85.17
2018-11-20T11:42:57.122Z,84.78
2018-11-20T11:43:57.089Z,85.26
2018-11-20T11:44:57.098Z,84.98
2018-11-20T11:45:57.047Z,85.45
2018-11-20T11:46:57.035Z,85.17
2018-11-20T11:47:57.028Z,84.98
2018-11-20T11:48:57.034Z,84.69
2018-11-20T11:49:57.009Z,84.50
2018-11-20T11:50:57.030Z,85.26
2018-11-20T11:51:56.994Z,84.78
2018-11-20T11:52:56.975Z,84.59
2018-11-20T11:53:56.956Z,85.17
2018-11-20T11:54:57.097Z,84.88
2018-11-20T11:55:56.944Z,84.41
2018-11-20T11:56:56.928Z,84.78
2018-11-20T11:57:56.912Z,84.59
2018-11-20T11:58:56.903Z,84.50
2018-11-20T11:59:56.908Z,84.78
2018-11-20T12:00:56.901Z,83.94
2018-11-20T12:03:17.911Z,84.03
2018-11-20T12:03:56.860Z,84.22
2018-11-20T12:04:56.840Z,84.22
2018-11-20T12:05:56.853Z,84.12
2018-11-20T12:06:56.840Z,83.65
2018-11-20T12:07:56.877Z,83.84
2018-11-20T12:08:56.801Z,84.07
2018-11-20T12:09:56.793Z,83.46
2018-11-20T12:10:56.783Z,83.55
2018-11-20T12:11:56.773Z,83.36
2018-11-20T12:12:56.767Z,83.65
2018-11-20T12:13:56.790Z,83.36
2018-11-20T12:14:56.744Z,83.65
2018-11-20T12:15:56.739Z,83.17
2018-11-20T12:16:56.722Z,83.17
2018-11-20T12:17:56.722Z,83.08
2018-11-20T12:18:56.709Z,83.36
2018-11-20T12:19:56.713Z,83.03
2018-11-20T12:20:56.707Z,83.17
2018-11-20T12:21:56.699Z,83.36
2018-11-20T12:22:56.655Z,83.22
2018-11-20T12:23:56.656Z,83.31
2018-11-20T12:24:56.657Z,82.65
2018-11-20T12:25:56.650Z,82.93
2018-11-20T12:26:56.620Z,82.84
2018-11-20T12:27:58.802Z,83.03
2018-11-20T12:28:57.903Z,82.70
2018-11-20T12:29:57.372Z,83.08
2018-11-20T12:30:56.612Z,83.36
2018-11-20T12:31:56.574Z,83.50
2018-11-20T12:32:56.612Z,82.65
2018-11-20T12:34:00.005Z,82.51
2018-11-20T12:34:56.678Z,83.08
2018-11-20T12:35:56.622Z,82.79
2018-11-20T12:36:56.538Z,82.60
2018-11-20T12:37:56.545Z,83.17
2018-11-20T12:38:56.495Z,82.65
2018-11-20T12:39:58.354Z,83.12
2018-11-20T12:40:56.479Z,82.93
2018-11-20T12:41:56.482Z,82.84
2018-11-20T12:42:57.679Z,82.65
2018-11-20T12:43:56.768Z,82.93
2018-11-20T12:44:56.738Z,82.36
2018-11-20T12:45:56.435Z,83.03
2018-11-20T12:46:56.429Z,82.84
2018-11-20T12:47:56.436Z,83.17
2018-11-20T12:48:58.487Z,82.74
2018-11-20T12:49:56.411Z,83.03
2018-11-20T12:50:56.388Z,82.55
2018-11-20T12:51:56.427Z,82.93
2018-11-20T12:52:56.371Z,83.03
2018-11-20T12:53:57.807Z,82.84
2018-11-20T12:54:56.355Z,82.93
2018-11-20T12:55:56.343Z,82.74
2018-11-20T12:56:56.351Z,82.93
2018-11-20T12:57:56.310Z,82.74
2018-11-20T12:58:56.305Z,82.46
2018-11-20T12:59:56.293Z,82.55
2018-11-20T13:00:56.290Z,83.03
2018-11-20T13:01:56.264Z,82.65
2018-11-20T13:02:56.260Z,82.84
2018-11-20T13:03:56.250Z,82.36
2018-11-20T13:04:56.242Z,82.36
2018-11-20T13:05:56.239Z,82.65
2018-11-20T13:06:56.223Z,82.74
2018-11-20T13:07:56.237Z,82.65
2018-11-20T13:08:56.229Z,82.08
2018-11-20T13:09:56.192Z,82.08
2018-11-20T13:10:56.194Z,82.55
2018-11-20T13:11:56.187Z,82.55
2018-11-20T13:12:56.587Z,82.55
2018-11-20T13:13:56.557Z,82.36
2018-11-20T13:14:56.608Z,82.74
2018-11-20T13:15:56.626Z,82.55
2018-11-20T13:16:56.129Z,82.08
2018-11-20T13:17:56.110Z,82.36
2018-11-20T13:18:56.112Z,82.36
2018-11-20T13:19:56.107Z,82.08
2018-11-20T13:20:56.085Z,82.08
2018-11-20T13:21:56.069Z,82.17
2018-11-20T13:22:56.089Z,82.17
2018-11-20T13:23:56.076Z,81.98
2018-11-20T13:24:57.937Z,81.88
2018-11-20T13:25:56.038Z,81.32
2018-11-20T13:26:56.053Z,81.51
2018-11-20T13:27:56.019Z,81.79
2018-11-20T13:28:56.005Z,81.41
2018-11-20T13:29:55.996Z,81.60
2018-11-20T13:30:55.997Z,81.32
2018-11-20T13:31:56.595Z,82.08
2018-11-20T13:32:55.964Z,81.32
2018-11-20T13:33:57.849Z,81.32
2018-11-20T13:34:57.698Z,81.88
2018-11-20T13:35:55.944Z,82.17
2018-11-20T13:36:55.967Z,81.51
2018-11-20T13:37:55.942Z,81.60
2018-11-20T13:38:55.934Z,81.23
2018-11-20T13:39:55.945Z,81.79
2018-11-20T13:40:55.889Z,81.88
2018-11-20T13:41:55.881Z,82.08
2018-11-20T13:42:55.881Z,81.32
2018-11-20T13:43:55.863Z,81.04
2018-11-20T13:44:55.852Z,81.32
2018-11-20T13:45:55.851Z,81.41
2018-11-20T13:46:55.847Z,81.70
2018-11-20T13:47:55.821Z,81.51
2018-11-20T13:48:55.812Z,80.94
2018-11-20T13:49:55.813Z,81.04
2018-11-20T13:50:55.801Z,80.94
2018-11-20T13:51:55.798Z,81.13
2018-11-20T13:52:55.809Z,81.04
2018-11-20T13:53:55.766Z,81.13
2018-11-20T13:54:55.773Z,80.84
2018-11-20T13:55:55.766Z,80.94
2018-11-20T13:56:55.745Z,80.94
2018-11-20T13:57:55.726Z,81.07
2018-11-20T13:58:55.743Z,81.45
2018-11-20T14:00:01.391Z,81.04
2018-11-20T14:00:55.717Z,81.60
2018-11-20T14:01:55.705Z,81.93
2018-11-20T14:02:55.680Z,81.17
2018-11-20T14:03:55.679Z,81.74
2018-11-20T14:04:55.672Z,81.17
2018-11-20T14:05:55.653Z,80.98
2018-11-20T14:06:55.637Z,81.26
2018-11-20T14:07:55.639Z,81.07
2018-11-20T14:08:55.625Z,81.04
2018-11-20T14:09:55.616Z,80.98
2018-11-20T14:10:55.627Z,81.07
2018-11-20T14:11:55.598Z,81.55
2018-11-20T14:12:55.587Z,81.45
2018-11-20T14:13:55.572Z,81.65
2018-11-20T14:14:55.579Z,81.51
2018-11-20T14:15:55.585Z,82.21
2018-11-20T14:16:55.568Z,81.65
2018-11-20T14:17:55.709Z,81.88
2018-11-20T14:18:55.551Z,81.55
2018-11-20T14:19:55.532Z,81.60
2018-11-20T14:20:55.505Z,82.12
2018-11-20T14:21:55.514Z,81.74
2018-11-20T14:22:55.670Z,82.21
2018-11-20T14:23:55.484Z,82.21
2018-11-20T14:24:55.478Z,82.27
2018-11-20T14:25:55.466Z,82.40
2018-11-20T14:26:55.455Z,82.40
2018-11-20T14:27:55.830Z,82.78
2018-11-20T14:28:55.500Z,82.36
2018-11-20T14:29:55.425Z,82.55
2018-11-20T14:30:55.443Z,82.17
2018-11-20T14:31:55.407Z,82.74
2018-11-20T14:32:55.405Z,83.03
2018-11-20T14:33:55.395Z,83.22
2018-11-20T14:34:55.384Z,83.12
2018-11-20T14:35:55.372Z,83.22
2018-11-20T14:36:55.365Z,83.31
2018-11-20T14:37:55.351Z,83.69
2018-11-20T14:38:56.612Z,83.78
2018-11-20T14:39:55.338Z,83.69
2018-11-20T14:40:55.349Z,83.59
2018-11-20T14:41:55.313Z,83.50
2018-11-20T14:42:55.313Z,84.17
2018-11-20T14:43:55.288Z,84.36
2018-11-20T14:44:55.287Z,84.55
2018-11-20T14:45:55.273Z,84.36
2018-11-20T14:46:55.304Z,84.64
2018-11-20T14:47:55.247Z,84.83
2018-11-20T14:48:55.312Z,84.55
2018-11-20T14:49:55.232Z,85.21
2018-11-20T14:50:55.248Z,85.21
2018-11-20T14:51:55.221Z,85.21
2018-11-20T14:52:55.202Z,84.92
2018-11-20T14:53:56.825Z,85.21
2018-11-20T14:54:55.190Z,85.30
2018-11-20T14:55:55.167Z,85.02
2018-11-20T14:56:55.204Z,85.11
2018-11-20T14:57:55.159Z,85.40
2018-11-20T14:58:55.153Z,85.68
2018-11-20T14:59:55.147Z,85.49
2018-11-20T15:00:55.142Z,86.07
2018-11-20T15:01:55.124Z,86.25
2018-11-20T15:02:55.136Z,85.97
2018-11-20T15:03:55.140Z,86.63
2018-11-20T15:04:55.096Z,86.63
2018-11-20T15:05:55.076Z,86.82
2018-11-20T15:06:55.068Z,87.11
2018-11-20T15:07:59.256Z,87.49
2018-11-20T15:08:55.048Z,87.20
2018-11-20T15:09:55.042Z,87.68
2018-11-20T15:10:55.030Z,87.58
2018-11-20T15:11:55.012Z,88.06
2018-11-20T15:12:55.011Z,88.06
2018-11-20T15:13:55.008Z,87.96
2018-11-20T15:14:55.004Z,88.24
2018-11-20T15:15:54.976Z,88.58
2018-11-20T15:16:54.965Z,88.96
2018-11-20T15:17:55.004Z,88.58
2018-11-20T15:18:54.964Z,88.68
2018-11-20T15:19:54.961Z,89.15
2018-11-20T15:20:54.943Z,89.62
2018-11-20T15:21:55.006Z,89.43
2018-11-20T15:22:54.969Z,89.43
2018-11-20T15:23:54.910Z,89.91
2018-11-20T15:24:54.919Z,90.10
2018-11-20T15:25:54.876Z,89.91
2018-11-20T15:26:54.895Z,89.91
2018-11-20T15:27:54.857Z,89.81
2018-11-20T15:28:54.858Z,89.62
2018-11-20T15:29:54.846Z,89.81
2018-11-20T15:30:54.846Z,90.10
2018-11-20T15:31:54.819Z,90.38
2018-11-20T15:32:54.831Z,90.67
2018-11-20T15:33:54.815Z,90.95
2018-11-20T15:34:54.799Z,90.67
2018-11-20T15:35:54.792Z,91.33
2018-11-20T15:36:54.776Z,91.80
2018-11-20T15:37:54.761Z,91.80
2018-11-20T15:38:54.775Z,91.90
2018-11-20T15:39:54.893Z,92.18
2018-11-20T15:40:54.738Z,92.18
2018-11-20T15:41:54.733Z,92.28
2018-11-20T15:42:54.730Z,92.57
2018-11-20T15:43:54.714Z,92.57
2018-11-20T15:44:54.692Z,92.18
2018-11-20T15:45:54.682Z,91.42
2018-11-20T15:46:54.700Z,91.05
2018-11-20T15:47:54.670Z,91.80
2018-11-20T15:48:54.674Z,91.80
2018-11-20T15:49:54.651Z,92.47
2018-11-20T15:50:54.658Z,92.66
2018-11-20T15:51:54.626Z,92.66
2018-11-20T15:52:54.626Z,93.04
2018-11-20T15:53:54.612Z,93.13
2018-11-20T15:54:54.591Z,93.04
2018-11-20T15:55:54.601Z,92.94
2018-11-20T15:56:54.588Z,93.13
2018-11-20T15:57:54.565Z,93.13
2018-11-20T15:58:54.553Z,93.32
2018-11-20T15:59:56.152Z,93.41
2018-11-20T16:00:54.549Z,93.23
2018-11-20T16:01:54.542Z,93.13
2018-11-20T16:02:54.537Z,93.41
2018-11-20T16:03:54.512Z,93.13
2018-11-20T16:04:54.500Z,93.89
2018-11-20T16:05:54.498Z,93.41
2018-11-20T16:06:54.495Z,94.46
2018-11-20T16:07:54.472Z,94.37
2018-11-20T16:08:54.456Z,94.27